createdAt,value
2022-08-17T00:00:49.499Z,59.75
2022-08-17T00:01:52.677Z,54.05
2022-08-17T00:02:48.383Z,50.02
2022-08-17T00:03:47.287Z,43.90
2022-08-17T00:04:50.536Z,43.28
2022-08-17T00:05:48.282Z,54.80
2022-08-17T00:06:48.632Z,56.29
2022-08-17T00:07:47.263Z,56.27
2022-08-17T00:08:47.256Z,57.03
2022-08-17T00:09:47.240Z,51.35
2022-08-17T00:10:47.231Z,43.85
2022-08-17T00:12:34.615Z,59.85
2022-08-17T00:12:48.219Z,50.16
2022-08-17T00:13:47.213Z,42.39
2022-08-17T00:14:47.205Z,48.96
2022-08-17T00:15:47.194Z,56.15
2022-08-17T00:16:53.411Z,55.82
2022-08-17T00:17:48.177Z,46.50
2022-08-17T00:19:00.918Z,47.10
2022-08-17T00:19:48.160Z,43.14
2022-08-17T00:20:47.158Z,48.53
2022-08-17T00:22:32.033Z,48.11
2022-08-17T00:22:48.210Z,59.33
2022-08-17T00:23:49.305Z,59.17
2022-08-17T00:24:47.130Z,54.16
2022-08-17T00:25:47.109Z,53.59
2022-08-17T00:26:47.128Z,56.85
2022-08-17T00:27:47.096Z,50.80
2022-08-17T00:28:47.094Z,56.56
2022-08-17T00:29:47.084Z,47.39
2022-08-17T00:30:50.995Z,56.98
2022-08-17T00:31:48.088Z,42.06
2022-08-17T00:33:14.103Z,41.89
2022-08-17T00:33:48.054Z,43.20
2022-08-17T00:34:47.040Z,52.60
2022-08-17T00:35:47.030Z,45.48
2022-08-17T00:36:47.071Z,64.18
2022-08-17T00:37:47.014Z,65.61
2022-08-17T00:38:47.010Z,43.28
2022-08-17T00:39:47.052Z,54.54
2022-08-17T00:40:46.994Z,59.80
2022-08-17T00:41:47.034Z,45.35
2022-08-17T00:42:46.997Z,49.90
2022-08-17T00:43:46.972Z,46.77
2022-08-17T00:44:46.965Z,52.20
2022-08-17T00:45:46.959Z,54.90
2022-08-17T00:46:46.978Z,43.48
2022-08-17T00:47:46.929Z,41.66
2022-08-17T00:48:46.926Z,45.19
2022-08-17T00:49:46.921Z,54.76
2022-08-17T00:50:46.909Z,58.67
2022-08-17T00:51:46.941Z,59.63
2022-08-17T00:52:46.904Z,58.71
2022-08-17T00:53:46.880Z,56.15
2022-08-17T00:54:46.872Z,49.81
2022-08-17T00:55:46.869Z,49.79
2022-08-17T00:56:46.893Z,57.19
2022-08-17T00:57:46.840Z,55.85
2022-08-17T00:58:46.839Z,44.90
2022-08-17T00:59:46.838Z,46.47
2022-08-17T01:00:47.870Z,51.72
2022-08-17T01:01:46.849Z,60.79
2022-08-17T01:02:46.818Z,53.53
2022-08-17T01:03:46.793Z,53.55
2022-08-17T01:04:46.793Z,47.03
2022-08-17T01:05:46.782Z,64.18
2022-08-17T01:06:46.841Z,49.47
2022-08-17T01:07:46.765Z,63.56
2022-08-17T01:08:46.760Z,54.69
2022-08-17T01:09:46.750Z,58.07
2022-08-17T01:10:58.691Z,56.21
2022-08-17T01:11:47.753Z,54.55
2022-08-17T01:12:46.762Z,44.33
2022-08-17T01:13:46.714Z,51.48
2022-08-17T01:14:46.714Z,56.47
2022-08-17T01:15:46.698Z,45.13
2022-08-17T01:16:46.728Z,51.10
2022-08-17T01:17:46.684Z,49.54
2022-08-17T01:18:46.695Z,63.99
2022-08-17T01:19:46.660Z,50.60
2022-08-17T01:20:48.183Z,62.30
2022-08-17T01:21:46.675Z,55.64
2022-08-17T01:22:46.670Z,56.25
2022-08-17T01:23:46.638Z,56.30
2022-08-17T01:24:46.624Z,46.27
2022-08-17T01:25:46.613Z,49.22
2022-08-17T01:26:46.641Z,59.27
2022-08-17T01:27:46.608Z,45.94
2022-08-17T01:28:55.084Z,52.55
2022-08-17T01:29:47.585Z,55.58
2022-08-17T01:30:56.994Z,49.67
2022-08-17T01:31:47.593Z,48.13
2022-08-17T01:32:46.609Z,55.18
2022-08-17T01:33:46.554Z,58.97
2022-08-17T01:34:50.655Z,43.50
2022-08-17T01:35:46.534Z,46.13
2022-08-17T01:36:46.558Z,50.23
2022-08-17T01:37:46.523Z,66.93
2022-08-17T01:38:46.510Z,48.62
2022-08-17T01:39:46.523Z,57.56
2022-08-17T01:40:46.489Z,58.37
2022-08-17T01:41:46.514Z,50.18
2022-08-17T01:42:46.563Z,53.02
2022-08-17T01:43:47.474Z,52.22
2022-08-17T01:44:46.464Z,51.59
2022-08-17T01:45:46.450Z,49.18
2022-08-17T01:46:46.475Z,57.11
2022-08-17T01:47:46.442Z,58.27
2022-08-17T01:48:46.425Z,48.23
2022-08-17T01:49:46.427Z,47.61
2022-08-17T01:50:46.403Z,57.31
2022-08-17T01:51:46.403Z,52.39
2022-08-17T01:52:46.480Z,56.03
2022-08-17T01:53:46.386Z,61.22
2022-08-17T01:54:46.375Z,50.91
2022-08-17T01:55:46.372Z,49.13
2022-08-17T01:56:47.206Z,43.52
2022-08-17T01:57:46.386Z,42.89
2022-08-17T01:58:46.345Z,52.14
2022-08-17T01:59:46.341Z,57.18
2022-08-17T02:00:47.815Z,50.68
2022-08-17T02:01:47.370Z,51.32
2022-08-17T02:02:46.332Z,61.84
2022-08-17T02:03:53.492Z,58.50
2022-08-17T02:04:47.289Z,46.51
2022-08-17T02:05:46.285Z,57.14
2022-08-17T02:06:53.112Z,62.89
2022-08-17T02:08:00.437Z,58.69
2022-08-17T02:09:02.448Z,56.79
2022-08-17T02:09:47.252Z,55.52
2022-08-17T02:10:47.237Z,55.88
2022-08-17T02:11:46.380Z,64.81
2022-08-17T02:12:46.255Z,52.88
2022-08-17T02:13:46.209Z,57.47
2022-08-17T02:14:46.208Z,59.73
2022-08-17T02:15:46.198Z,61.21
2022-08-17T02:16:46.190Z,49.08
2022-08-17T02:17:46.216Z,42.22
2022-08-17T02:18:46.170Z,53.66
2022-08-17T02:19:46.176Z,44.93
2022-08-17T02:20:46.151Z,54.13
2022-08-17T02:21:46.150Z,45.20
2022-08-17T02:22:46.260Z,65.18
2022-08-17T02:23:46.133Z,45.57
2022-08-17T02:24:59.964Z,48.75
2022-08-17T02:25:47.120Z,65.19
2022-08-17T02:26:46.100Z,61.06
2022-08-17T02:27:46.122Z,61.14
2022-08-17T02:28:46.094Z,62.62
2022-08-17T02:29:46.081Z,50.52
2022-08-17T02:31:02.155Z,58.17
2022-08-17T02:31:47.059Z,49.00
2022-08-17T02:32:46.131Z,51.17
2022-08-17T02:33:46.045Z,46.25
2022-08-17T02:34:47.024Z,66.69
2022-08-17T02:35:47.032Z,55.46
2022-08-17T02:36:46.021Z,65.02
2022-08-17T02:37:46.063Z,49.77
2022-08-17T02:38:47.000Z,51.03
2022-08-17T02:39:46.047Z,58.90
2022-08-17T02:40:45.998Z,55.59
2022-08-17T02:41:45.991Z,57.86
2022-08-17T02:42:46.052Z,54.71
2022-08-17T02:43:45.959Z,43.62
2022-08-17T02:44:45.951Z,48.17
2022-08-17T02:45:45.941Z,49.35
2022-08-17T02:46:45.938Z,52.83
2022-08-17T02:47:45.960Z,53.43
2022-08-17T02:48:45.912Z,61.10
2022-08-17T02:49:54.461Z,56.27
2022-08-17T02:50:47.907Z,53.23
2022-08-17T02:51:45.890Z,55.73
2022-08-17T02:52:57.259Z,65.95
2022-08-17T02:53:46.891Z,58.92
2022-08-17T02:54:45.866Z,53.33
2022-08-17T02:55:45.857Z,55.06
2022-08-17T02:56:45.855Z,66.22
2022-08-17T02:57:45.875Z,56.66
2022-08-17T02:58:45.867Z,63.18
2022-08-17T02:59:49.080Z,62.80
2022-08-17T03:00:46.821Z,56.47
2022-08-17T03:01:45.837Z,58.75
2022-08-17T03:02:45.969Z,55.10
2022-08-17T03:03:45.811Z,67.36
2022-08-17T03:04:45.807Z,52.65
2022-08-17T03:05:45.777Z,63.89
2022-08-17T03:06:45.768Z,66.16
2022-08-17T03:07:45.790Z,52.31
2022-08-17T03:08:45.757Z,66.09
2022-08-17T03:09:45.750Z,59.71
2022-08-17T03:10:45.745Z,54.69
2022-08-17T03:11:45.751Z,69.27
2022-08-17T03:12:45.724Z,64.39
2022-08-17T03:13:45.746Z,56.87
2022-08-17T03:14:45.706Z,62.85
2022-08-17T03:15:45.697Z,64.20
2022-08-17T03:16:45.690Z,61.03
2022-08-17T03:17:45.684Z,61.27
2022-08-17T03:18:45.703Z,55.77
2022-08-17T03:19:45.670Z,70.77
2022-08-17T03:20:45.660Z,67.04
2022-08-17T03:21:45.648Z,62.51
2022-08-17T03:22:48.074Z,68.34
2022-08-17T03:23:46.630Z,66.67
2022-08-17T03:24:46.626Z,64.71
2022-08-17T03:25:45.613Z,66.63
2022-08-17T03:26:45.613Z,54.88
2022-08-17T03:27:48.226Z,64.30
2022-08-17T03:28:46.603Z,67.45
2022-08-17T03:29:45.581Z,61.44
2022-08-17T03:30:45.579Z,63.91
2022-08-17T03:31:45.573Z,70.59
2022-08-17T03:32:45.595Z,63.57
2022-08-17T03:33:45.554Z,57.52
2022-08-17T03:34:45.542Z,69.01
2022-08-17T03:35:45.532Z,67.21
2022-08-17T03:36:45.525Z,59.98
2022-08-17T03:37:45.553Z,64.29
2022-08-17T03:38:45.575Z,66.18
2022-08-17T03:39:45.617Z,70.52
2022-08-17T03:40:57.256Z,65.23
2022-08-17T03:41:46.489Z,64.18
2022-08-17T03:42:45.562Z,60.75
2022-08-17T03:43:45.494Z,66.37
2022-08-17T03:44:45.469Z,66.78
2022-08-17T03:45:45.461Z,68.33
2022-08-17T03:46:45.441Z,64.89
2022-08-17T03:47:45.468Z,63.52
2022-08-17T03:48:45.434Z,70.15
2022-08-17T03:49:45.410Z,66.91
2022-08-17T03:50:45.413Z,64.86
2022-08-17T03:51:45.397Z,68.69
2022-08-17T03:52:45.438Z,61.61
2022-08-17T03:53:46.381Z,67.26
2022-08-17T03:54:45.383Z,63.38
2022-08-17T03:55:45.371Z,62.82
2022-08-17T03:56:45.358Z,61.53
2022-08-17T03:57:46.395Z,68.06
2022-08-17T03:58:45.351Z,73.18
2022-08-17T03:59:45.406Z,61.11
2022-08-17T04:00:45.337Z,62.67
2022-08-17T04:01:45.381Z,64.88
2022-08-17T04:02:45.340Z,62.64
2022-08-17T04:03:45.297Z,68.88
2022-08-17T04:04:45.292Z,61.13
2022-08-17T04:05:45.290Z,62.06
2022-08-17T04:06:45.271Z,70.57
2022-08-17T04:07:45.295Z,69.72
2022-08-17T04:08:45.261Z,66.32
2022-08-17T04:09:45.260Z,67.74
2022-08-17T04:10:45.511Z,72.24
2022-08-17T04:11:45.233Z,70.61
2022-08-17T04:12:45.252Z,64.04
2022-08-17T04:13:45.259Z,72.99
2022-08-17T04:14:52.827Z,66.41
2022-08-17T04:15:46.200Z,63.94
2022-08-17T04:16:45.208Z,68.44
2022-08-17T04:17:45.210Z,70.32
2022-08-17T04:18:45.175Z,66.34
2022-08-17T04:19:45.172Z,68.29
2022-08-17T04:20:45.169Z,69.59
2022-08-17T04:21:45.154Z,71.25
2022-08-17T04:22:45.268Z,72.54
2022-08-17T04:23:45.134Z,70.79
2022-08-17T04:24:45.128Z,65.95
2022-08-17T04:25:45.115Z,70.28
2022-08-17T04:26:52.877Z,70.41
2022-08-17T04:27:46.128Z,67.42
2022-08-17T04:28:45.092Z,65.26
2022-08-17T04:29:55.144Z,69.34
2022-08-17T04:30:46.069Z,73.12
2022-08-17T04:31:45.071Z,70.85
2022-08-17T04:33:09.820Z,65.03
2022-08-17T04:33:46.047Z,69.24
2022-08-17T04:34:45.038Z,71.55
2022-08-17T04:35:45.032Z,71.11
2022-08-17T04:36:50.203Z,64.44
2022-08-17T04:37:46.038Z,65.08
2022-08-17T04:38:45.022Z,68.57
2022-08-17T04:39:45.101Z,70.16
2022-08-17T04:40:44.985Z,71.03
2022-08-17T04:41:44.983Z,68.24
2022-08-17T04:42:45.001Z,66.01
2022-08-17T04:43:44.973Z,70.40
2022-08-17T04:44:44.971Z,72.05
2022-08-17T04:45:55.356Z,66.52
2022-08-17T04:46:45.937Z,67.28
2022-08-17T04:47:44.969Z,63.80
2022-08-17T04:48:44.915Z,72.40
2022-08-17T04:49:44.914Z,69.20
2022-08-17T04:50:44.907Z,63.31
2022-08-17T04:51:51.622Z,69.23
2022-08-17T04:52:45.925Z,69.42
2022-08-17T04:53:44.880Z,68.99
2022-08-17T04:54:44.869Z,71.72
2022-08-17T04:55:44.876Z,69.68
2022-08-17T04:56:44.864Z,69.68
2022-08-17T04:57:45.229Z,65.51
2022-08-17T04:58:45.883Z,67.52
2022-08-17T04:59:44.849Z,68.97
2022-08-17T05:00:44.818Z,70.79
2022-08-17T05:01:44.855Z,68.26
2022-08-17T05:02:50.109Z,67.85
2022-08-17T05:03:45.817Z,66.22
2022-08-17T05:04:44.800Z,66.04
2022-08-17T05:05:44.783Z,67.79
2022-08-17T05:06:44.775Z,71.38
2022-08-17T05:07:44.765Z,69.14
2022-08-17T05:08:44.787Z,65.26
2022-08-17T05:09:44.748Z,66.06
2022-08-17T05:10:45.427Z,67.92
2022-08-17T05:11:44.927Z,67.12
2022-08-17T05:12:44.714Z,71.33
2022-08-17T05:13:44.739Z,66.74
2022-08-17T05:14:44.700Z,65.47
2022-08-17T05:15:45.045Z,68.48
2022-08-17T05:16:44.685Z,69.20
2022-08-17T05:17:44.677Z,63.78
2022-08-17T05:18:44.756Z,65.47
2022-08-17T05:19:47.658Z,67.67
2022-08-17T05:20:45.650Z,70.28
2022-08-17T05:21:44.648Z,67.53
2022-08-17T05:22:44.641Z,67.43
2022-08-17T05:23:44.658Z,56.36
2022-08-17T05:24:53.597Z,70.56
2022-08-17T05:25:45.676Z,64.93
2022-08-17T05:26:44.600Z,66.18
2022-08-17T05:27:44.605Z,69.51
2022-08-17T05:28:44.611Z,68.94
2022-08-17T05:29:44.574Z,67.40
2022-08-17T05:30:44.563Z,66.19
2022-08-17T05:31:44.557Z,71.06
2022-08-17T05:32:44.589Z,66.99
2022-08-17T05:33:44.614Z,64.90
2022-08-17T05:34:45.539Z,68.05
2022-08-17T05:35:44.527Z,70.23
2022-08-17T05:36:44.643Z,69.97
2022-08-17T05:37:45.549Z,68.03
2022-08-17T05:38:44.505Z,60.43
2022-08-17T05:39:44.539Z,69.72
2022-08-17T05:40:44.501Z,71.26
2022-08-17T05:41:44.471Z,68.67
2022-08-17T05:42:44.496Z,66.36
2022-08-17T05:43:44.461Z,63.53
2022-08-17T05:44:44.449Z,68.87
2022-08-17T05:45:56.155Z,69.18
2022-08-17T05:46:45.438Z,69.97
2022-08-17T05:47:44.435Z,62.79
2022-08-17T05:48:44.451Z,65.37
2022-08-17T05:49:44.410Z,64.68
2022-08-17T05:50:44.408Z,72.42
2022-08-17T05:51:44.399Z,64.27
2022-08-17T05:52:44.399Z,65.61
2022-08-17T05:53:44.409Z,64.71
2022-08-17T05:54:44.380Z,63.23
2022-08-17T05:55:44.365Z,67.34
2022-08-17T05:56:44.378Z,63.76
2022-08-17T05:57:53.244Z,66.07
2022-08-17T05:58:45.372Z,57.88
2022-08-17T05:59:44.337Z,66.81
2022-08-17T06:00:44.403Z,67.54
2022-08-17T06:01:44.321Z,68.97
2022-08-17T06:02:48.649Z,65.79
2022-08-17T06:03:45.335Z,66.68
2022-08-17T06:04:44.298Z,66.31
2022-08-17T06:05:44.296Z,63.06
2022-08-17T06:06:44.271Z,66.51
2022-08-17T06:07:44.266Z,63.79
2022-08-17T06:08:44.291Z,68.60
2022-08-17T06:09:44.252Z,64.64
2022-08-17T06:10:44.243Z,67.32
2022-08-17T06:11:44.237Z,68.51
2022-08-17T06:12:44.236Z,66.28
2022-08-17T06:13:44.249Z,65.95
2022-08-17T06:14:44.216Z,61.22
2022-08-17T06:15:44.198Z,64.18
2022-08-17T06:16:44.193Z,65.06
2022-08-17T06:17:44.189Z,70.01
2022-08-17T06:18:44.200Z,66.53
2022-08-17T06:19:44.178Z,60.80
2022-08-17T06:20:44.161Z,64.06
2022-08-17T06:21:44.172Z,64.28
2022-08-17T06:22:44.149Z,70.40
2022-08-17T06:23:44.165Z,62.96
2022-08-17T06:24:44.134Z,68.77
2022-08-17T06:25:44.125Z,64.26
2022-08-17T06:26:44.117Z,67.52
2022-08-17T06:27:44.104Z,61.80
2022-08-17T06:28:44.129Z,65.07
2022-08-17T06:29:44.095Z,64.93
2022-08-17T06:30:57.435Z,67.44
2022-08-17T06:31:45.074Z,61.13
2022-08-17T06:32:44.063Z,55.30
2022-08-17T06:33:44.085Z,64.25
2022-08-17T06:34:44.057Z,67.69
2022-08-17T06:35:44.061Z,63.39
2022-08-17T06:36:44.033Z,68.96
2022-08-17T06:37:44.025Z,69.59
2022-08-17T06:38:44.058Z,64.17
2022-08-17T06:39:44.070Z,65.17
2022-08-17T06:40:44.011Z,67.35
2022-08-17T06:41:44.010Z,66.82
2022-08-17T06:43:05.553Z,63.39
2022-08-17T06:43:47.952Z,71.55
2022-08-17T06:44:51.120Z,66.15
2022-08-17T06:45:44.967Z,68.01
2022-08-17T06:46:43.986Z,63.49
2022-08-17T06:47:43.949Z,66.01
2022-08-17T06:48:43.982Z,67.27
2022-08-17T06:49:43.931Z,66.75
2022-08-17T06:50:43.924Z,63.60
2022-08-17T06:51:43.916Z,65.12
2022-08-17T06:52:47.177Z,68.68
2022-08-17T06:53:43.934Z,67.50
2022-08-17T06:54:43.901Z,64.83
2022-08-17T06:55:43.874Z,66.95
2022-08-17T06:56:53.169Z,64.34
2022-08-17T06:57:44.888Z,61.54
2022-08-17T06:58:43.901Z,64.33
2022-08-17T06:59:54.977Z,68.81
2022-08-17T07:00:44.913Z,65.53
2022-08-17T07:01:43.925Z,65.05
2022-08-17T07:02:52.075Z,66.29
2022-08-17T07:03:44.848Z,60.16
2022-08-17T07:04:43.877Z,63.43
2022-08-17T07:05:43.803Z,70.56
2022-08-17T07:06:43.809Z,58.42
2022-08-17T07:07:43.789Z,65.03
2022-08-17T07:08:43.817Z,63.11
2022-08-17T07:09:43.779Z,69.61
2022-08-17T07:10:43.775Z,64.44
2022-08-17T07:11:43.769Z,64.44
2022-08-17T07:12:43.766Z,63.88
2022-08-17T07:13:43.772Z,60.39
2022-08-17T07:14:44.749Z,63.17
2022-08-17T07:15:43.734Z,64.54
2022-08-17T07:16:44.724Z,70.01
2022-08-17T07:17:47.230Z,60.05
2022-08-17T07:18:44.766Z,66.69
2022-08-17T07:19:43.715Z,68.55
2022-08-17T07:20:43.706Z,70.16
2022-08-17T07:21:43.673Z,66.32
2022-08-17T07:22:57.516Z,62.98
2022-08-17T07:23:44.664Z,64.15
2022-08-17T07:24:43.691Z,66.91
2022-08-17T07:25:43.661Z,65.60
2022-08-17T07:26:43.653Z,63.62
2022-08-17T07:27:43.677Z,66.23
2022-08-17T07:28:43.636Z,61.41
2022-08-17T07:29:43.648Z,57.15
2022-08-17T07:30:47.528Z,68.93
2022-08-17T07:31:43.615Z,61.85
2022-08-17T07:32:43.595Z,70.41
2022-08-17T07:33:43.597Z,66.27
2022-08-17T07:34:43.615Z,62.62
2022-08-17T07:35:44.577Z,65.48
2022-08-17T07:36:43.567Z,68.96
2022-08-17T07:37:43.600Z,60.71
2022-08-17T07:38:43.552Z,66.34
2022-08-17T07:39:59.705Z,64.95
2022-08-17T07:40:44.622Z,61.74
2022-08-17T07:41:53.168Z,65.11
2022-08-17T07:42:46.746Z,68.72
2022-08-17T07:43:44.525Z,67.07
2022-08-17T07:44:43.545Z,64.90
2022-08-17T07:45:43.502Z,60.97
2022-08-17T07:46:43.508Z,67.54
2022-08-17T07:47:43.515Z,69.42
2022-08-17T07:48:43.488Z,61.58
2022-08-17T07:49:43.507Z,67.10
2022-08-17T07:50:43.480Z,66.68
2022-08-17T07:51:44.468Z,70.59
2022-08-17T07:52:51.801Z,65.48
2022-08-17T07:53:44.451Z,62.38
2022-08-17T07:54:43.474Z,63.23
2022-08-17T07:55:43.429Z,67.93
2022-08-17T07:56:43.433Z,67.26
2022-08-17T07:57:43.451Z,63.07
2022-08-17T07:58:43.416Z,61.11
2022-08-17T07:59:43.491Z,66.81
2022-08-17T08:00:43.406Z,67.06
2022-08-17T08:01:43.421Z,65.96
2022-08-17T08:02:43.396Z,62.86
2022-08-17T08:03:43.374Z,67.51
2022-08-17T08:04:59.754Z,63.65
2022-08-17T08:05:50.722Z,61.38
2022-08-17T08:06:44.391Z,62.96
2022-08-17T08:07:43.434Z,65.75
2022-08-17T08:08:43.361Z,68.34
2022-08-17T08:09:43.363Z,64.56
2022-08-17T08:10:45.432Z,64.25
2022-08-17T08:11:44.400Z,65.03
2022-08-17T08:12:44.309Z,68.60
2022-08-17T08:13:43.304Z,57.79
2022-08-17T08:14:43.333Z,62.86
2022-08-17T08:15:45.141Z,65.20
2022-08-17T08:16:44.281Z,66.71
2022-08-17T08:17:43.351Z,59.71
2022-08-17T08:18:55.283Z,65.86
2022-08-17T08:19:44.291Z,64.43
2022-08-17T08:20:53.420Z,67.58
2022-08-17T08:21:44.250Z,63.22
2022-08-17T08:22:43.234Z,63.35
2022-08-17T08:23:43.274Z,65.78
2022-08-17T08:24:43.283Z,61.38
2022-08-17T08:25:43.260Z,67.67
2022-08-17T08:26:43.224Z,67.25
2022-08-17T08:27:43.248Z,67.87
2022-08-17T08:28:43.227Z,63.14
2022-08-17T08:29:43.211Z,58.53
2022-08-17T08:30:43.214Z,63.24
2022-08-17T08:31:43.175Z,67.02
2022-08-17T08:32:43.196Z,57.17
2022-08-17T08:33:43.155Z,63.02
2022-08-17T08:34:58.986Z,64.12
2022-08-17T08:35:44.178Z,64.05
2022-08-17T08:37:14.670Z,63.96
2022-08-17T08:37:44.154Z,65.25
2022-08-17T08:38:43.140Z,70.83
2022-08-17T08:39:43.169Z,65.30
2022-08-17T08:40:43.149Z,66.36
2022-08-17T08:41:43.299Z,67.76
2022-08-17T08:42:43.111Z,62.12
2022-08-17T08:43:43.109Z,64.04
2022-08-17T08:44:59.739Z,64.43
2022-08-17T08:45:44.111Z,64.01
2022-08-17T08:46:43.082Z,65.44
2022-08-17T08:47:43.072Z,65.09
2022-08-17T08:48:55.933Z,58.80
2022-08-17T08:50:03.238Z,62.33
2022-08-17T08:50:45.076Z,67.84
2022-08-17T08:51:43.052Z,69.14
2022-08-17T08:52:43.038Z,63.92
2022-08-17T08:53:43.048Z,60.30
2022-08-17T08:54:43.031Z,66.10
2022-08-17T08:55:43.050Z,64.51
2022-08-17T08:56:58.964Z,65.05
2022-08-17T08:57:45.049Z,64.08
2022-08-17T08:58:43.067Z,68.95
2022-08-17T08:59:44.537Z,67.50
2022-08-17T09:00:43.015Z,64.25
2022-08-17T09:01:43.029Z,59.20
2022-08-17T09:02:42.972Z,61.47
2022-08-17T09:03:52.837Z,67.15
2022-08-17T09:05:10.721Z,55.42
2022-08-17T09:05:44.973Z,63.22
2022-08-17T09:06:42.935Z,62.49
2022-08-17T09:07:43.004Z,63.01
2022-08-17T09:08:42.924Z,66.14
2022-08-17T09:09:42.926Z,65.78
2022-08-17T09:10:42.950Z,66.15
2022-08-17T09:12:02.109Z,65.86
2022-08-17T09:12:43.902Z,57.52
2022-08-17T09:13:42.892Z,59.76
2022-08-17T09:14:46.484Z,61.53
2022-08-17T09:15:42.920Z,66.02
2022-08-17T09:16:42.879Z,63.97
2022-08-17T09:17:42.870Z,65.69
2022-08-17T09:18:59.895Z,68.54
2022-08-17T09:19:43.857Z,66.38
2022-08-17T09:20:46.628Z,65.26
2022-08-17T09:21:48.523Z,57.92
2022-08-17T09:22:42.833Z,62.01
2022-08-17T09:23:42.834Z,67.04
2022-08-17T09:24:42.819Z,64.52
2022-08-17T09:25:42.843Z,62.98
2022-08-17T09:26:42.804Z,63.54
2022-08-17T09:27:42.895Z,64.33
2022-08-17T09:28:42.812Z,64.64
2022-08-17T09:29:42.815Z,63.36
2022-08-17T09:30:42.791Z,66.35
2022-08-17T09:31:49.150Z,65.16
2022-08-17T09:32:43.782Z,59.30
2022-08-17T09:33:42.762Z,63.76
2022-08-17T09:34:43.641Z,62.22
2022-08-17T09:35:42.798Z,64.74
2022-08-17T09:36:42.745Z,59.98
2022-08-17T09:37:42.756Z,63.71
2022-08-17T09:38:42.730Z,62.00
2022-08-17T09:39:42.836Z,64.71
2022-08-17T09:40:42.752Z,66.52
2022-08-17T09:41:48.512Z,58.98
2022-08-17T09:42:43.702Z,59.64
2022-08-17T09:43:42.715Z,65.45
2022-08-17T09:44:42.699Z,65.61
2022-08-17T09:45:42.710Z,64.70
2022-08-17T09:46:42.679Z,61.43
2022-08-17T09:47:42.784Z,63.15
2022-08-17T09:48:42.700Z,62.04
2022-08-17T09:49:42.669Z,63.56
2022-08-17T09:51:03.914Z,63.76
2022-08-17T09:51:43.635Z,62.20
2022-08-17T09:52:43.664Z,63.88
2022-08-17T09:53:44.781Z,62.46
2022-08-17T09:54:42.620Z,65.39
2022-08-17T09:55:42.649Z,63.22
2022-08-17T09:56:46.341Z,55.04
2022-08-17T09:57:44.647Z,63.01
2022-08-17T09:58:42.598Z,64.19
2022-08-17T09:59:42.607Z,66.60
2022-08-17T10:00:42.629Z,68.16
2022-08-17T10:01:42.664Z,59.95
2022-08-17T10:02:42.585Z,63.14
2022-08-17T10:03:42.573Z,62.56
2022-08-17T10:04:42.585Z,66.08
2022-08-17T10:05:42.694Z,63.04
2022-08-17T10:06:42.554Z,63.10
2022-08-17T10:07:42.556Z,64.82
2022-08-17T10:08:42.540Z,62.94
2022-08-17T10:09:42.536Z,66.65
2022-08-17T10:10:42.563Z,64.47
2022-08-17T10:11:43.542Z,62.17
2022-08-17T10:12:45.174Z,66.41
2022-08-17T10:13:53.210Z,65.02
2022-08-17T10:14:43.814Z,61.70
2022-08-17T10:15:42.794Z,64.85
2022-08-17T10:16:43.495Z,59.28
2022-08-17T10:17:42.479Z,67.52
2022-08-17T10:18:42.472Z,67.44
2022-08-17T10:19:44.138Z,63.90
2022-08-17T10:20:42.497Z,66.41
2022-08-17T10:21:42.466Z,66.36
2022-08-17T10:22:42.484Z,67.71
2022-08-17T10:23:42.451Z,62.65
2022-08-17T10:25:21.856Z,62.35
2022-08-17T10:25:54.724Z,65.68
2022-08-17T10:26:56.651Z,65.42
2022-08-17T10:27:43.436Z,64.48
2022-08-17T10:28:43.412Z,65.05
2022-08-17T10:29:49.152Z,65.30
2022-08-17T10:30:43.578Z,66.13
2022-08-17T10:31:42.379Z,62.87
2022-08-17T10:32:42.374Z,59.34
2022-08-17T10:33:42.371Z,59.32
2022-08-17T10:34:42.363Z,65.77
2022-08-17T10:35:42.428Z,65.56
2022-08-17T10:36:42.353Z,58.53
2022-08-17T10:37:42.488Z,66.32
2022-08-17T10:38:42.363Z,67.61
2022-08-17T10:39:52.397Z,62.69
2022-08-17T10:40:43.361Z,63.41
2022-08-17T10:41:42.351Z,62.55
2022-08-17T10:42:42.305Z,68.82
2022-08-17T10:43:42.293Z,66.21
2022-08-17T10:44:43.291Z,62.02
2022-08-17T10:45:42.284Z,63.01
2022-08-17T10:46:42.306Z,62.76
2022-08-17T10:47:54.862Z,64.38
2022-08-17T10:48:44.265Z,61.62
2022-08-17T10:49:42.259Z,65.51
2022-08-17T10:50:42.416Z,59.86
2022-08-17T10:51:42.435Z,58.96
2022-08-17T10:52:42.349Z,65.52
2022-08-17T10:53:42.326Z,63.50
2022-08-17T10:54:42.236Z,63.78
2022-08-17T10:55:42.209Z,68.02
2022-08-17T10:56:42.234Z,67.44
2022-08-17T10:57:42.201Z,60.35
2022-08-17T10:58:42.192Z,60.18
2022-08-17T10:59:42.181Z,66.41
2022-08-17T11:00:42.230Z,61.68
2022-08-17T11:01:42.195Z,62.54
2022-08-17T11:02:42.177Z,63.62
2022-08-17T11:03:42.153Z,66.68
2022-08-17T11:04:42.159Z,68.02
2022-08-17T11:05:44.026Z,63.42
2022-08-17T11:06:43.158Z,59.99
2022-08-17T11:07:42.137Z,65.21
2022-08-17T11:08:42.121Z,65.65
2022-08-17T11:09:42.121Z,60.38
2022-08-17T11:10:42.111Z,66.01
2022-08-17T11:11:42.125Z,64.22
2022-08-17T11:12:42.230Z,65.61
2022-08-17T11:13:42.083Z,65.69
2022-08-17T11:14:42.079Z,63.83
2022-08-17T11:15:42.066Z,64.78
2022-08-17T11:16:42.085Z,66.54
2022-08-17T11:17:42.047Z,62.16
2022-08-17T11:18:42.053Z,64.23
2022-08-17T11:19:42.131Z,65.53
2022-08-17T11:20:42.061Z,70.26
2022-08-17T11:21:42.054Z,67.59
2022-08-17T11:22:42.023Z,64.97
2022-08-17T11:23:42.007Z,62.49
2022-08-17T11:24:43.400Z,65.20
2022-08-17T11:25:42.009Z,65.64
2022-08-17T11:26:42.021Z,59.21
2022-08-17T11:27:41.983Z,64.97
2022-08-17T11:28:41.971Z,67.74
2022-08-17T11:29:41.956Z,68.41
2022-08-17T11:30:44.326Z,64.89
2022-08-17T11:31:41.980Z,61.39
2022-08-17T11:32:47.718Z,67.69
2022-08-17T11:33:42.935Z,64.26
2022-08-17T11:34:41.913Z,63.44
2022-08-17T11:35:42.646Z,66.29
2022-08-17T11:36:41.950Z,66.21
2022-08-17T11:37:41.897Z,66.95
2022-08-17T11:38:41.901Z,63.88
2022-08-17T11:39:41.977Z,62.20
2022-08-17T11:40:41.874Z,65.11
2022-08-17T11:41:41.876Z,67.35
2022-08-17T11:42:41.907Z,68.70
2022-08-17T11:43:42.919Z,66.57
2022-08-17T11:44:42.852Z,64.29
2022-08-17T11:45:41.858Z,63.22
2022-08-17T11:46:41.869Z,67.13
2022-08-17T11:47:42.837Z,68.51
2022-08-17T11:48:41.811Z,65.60
2022-08-17T11:49:41.812Z,67.63
2022-08-17T11:50:41.805Z,64.87
2022-08-17T11:51:41.840Z,59.48
2022-08-17T11:52:41.795Z,63.97
2022-08-17T11:53:41.781Z,64.75
2022-08-17T11:54:41.766Z,63.31
2022-08-17T11:55:44.802Z,63.18
2022-08-17T11:56:42.775Z,68.10
2022-08-17T11:57:41.750Z,67.45
2022-08-17T11:58:41.742Z,64.59
2022-08-17T11:59:41.728Z,62.04
2022-08-17T12:00:41.731Z,68.69
2022-08-17T12:01:41.763Z,68.14
2022-08-17T12:02:46.943Z,64.97
2022-08-17T12:03:53.840Z,61.16
2022-08-17T12:04:42.737Z,65.12
2022-08-17T12:05:41.687Z,67.99
2022-08-17T12:06:41.725Z,63.76
2022-08-17T12:07:41.670Z,61.22
2022-08-17T12:08:41.665Z,66.16
2022-08-17T12:09:41.656Z,63.57
2022-08-17T12:10:41.657Z,60.13
2022-08-17T12:11:58.731Z,62.95
2022-08-17T12:12:42.636Z,64.42
2022-08-17T12:13:41.621Z,67.88
2022-08-17T12:15:08.119Z,66.06
2022-08-17T12:15:43.613Z,64.56
2022-08-17T12:16:41.642Z,66.02
2022-08-17T12:17:43.046Z,63.69
2022-08-17T12:18:42.597Z,64.81
2022-08-17T12:19:41.605Z,63.86
2022-08-17T12:20:41.572Z,63.92
2022-08-17T12:21:41.622Z,59.28
2022-08-17T12:22:41.562Z,68.70
2022-08-17T12:23:41.552Z,62.91
2022-08-17T12:24:41.547Z,63.72
2022-08-17T12:25:41.555Z,56.61
2022-08-17T12:26:41.588Z,66.81
2022-08-17T12:28:05.195Z,62.57
2022-08-17T12:28:42.562Z,66.35
2022-08-17T12:29:41.506Z,63.43
2022-08-17T12:30:41.503Z,63.91
2022-08-17T12:31:41.492Z,67.30
2022-08-17T12:32:41.587Z,65.34
2022-08-17T12:33:41.478Z,65.74
2022-08-17T12:34:41.505Z,64.80
2022-08-17T12:35:41.487Z,63.81
2022-08-17T12:36:41.480Z,65.57
2022-08-17T12:37:41.480Z,60.85
2022-08-17T12:38:41.452Z,61.63
2022-08-17T12:39:41.506Z,63.96
2022-08-17T12:40:41.434Z,65.70
2022-08-17T12:41:41.465Z,66.52
2022-08-17T12:42:41.476Z,64.20
2022-08-17T12:43:41.405Z,65.39
2022-08-17T12:44:50.291Z,65.02
2022-08-17T12:45:42.393Z,65.48
2022-08-17T12:46:41.380Z,65.55
2022-08-17T12:47:41.434Z,65.16
2022-08-17T12:48:59.267Z,66.08
2022-08-17T12:49:42.374Z,66.48
2022-08-17T12:50:41.368Z,63.99
2022-08-17T12:51:41.354Z,66.03
2022-08-17T12:52:41.367Z,66.83